• Join FlightAware (Why Join?)
  • Login
  • US Flag 
08:28AM EDT


 

Airport Tracker/Info


-or-


 

Live Flight TrackerFlight Track Log ✈ JIA2382 ✈ 12-Jun-2013 ✈ KCLT - KPGV

Flight Track Log - Related Links

Times and Time Zones

All times are in EDT time to prevent confusion due to time zone crossing. See the JIA2382 flight status page for this flight to view local times or setup timezone preferences in your user account.

Time Position Orientation Groundspeed Altitude Reporting Facility
EDT Latitude Longitude Course Direction KTS MPH feet Rate Location/Type
09:34AM 35.1886 -80.9358 72° East 167 192 1,900  Level Atlanta Center
09:34AM 35.1761 -80.9361 181° South 165 190 2,400 1,920 Climbing Atlanta Center
09:35AM 35.1211 -80.8978 150° Southeast 237 273 4,500 1,980 Climbing Atlanta Center
09:36AM 35.1000 -80.6476 90° East  Level FlightAware Approximate
09:36AM 35.0900 -80.8253 118° Southeast 280 322 6,500  Level Atlanta Center
09:37AM 35.1962 -80.5692 29° Northeast  Level FlightAware Approximate
09:37AM 35.1172 -80.7531 65° Northeast 278 320 8,200  Level Atlanta Center
09:38AM 35.3010 -80.4946 30° Northeast  Level FlightAware Approximate
09:38AM 35.1608 -80.6700 57° Northeast 289 333 10,400  Level Atlanta Center
09:39AM 35.3558 -80.3818 72° East  Level FlightAware Approximate
09:39AM 35.2064 -80.5817 58° Northeast 300 345 12,500  Level Atlanta Center
09:41AM 35.3067 -80.3872 58° Northeast 315 362 16,800 1,800 Climbing Washington Center
09:42AM 35.3561 -80.2958 56° Northeast 315 362 18,300 1,440 Climbing Washington Center
09:43AM 35.4039 -80.1992 59° Northeast 320 368 19,700 1,620 Climbing Washington Center
09:44AM 35.4478 -80.0819 65° Northeast 332 382 21,500 1,440 Climbing Washington Center
09:45AM 35.4772 -79.9664 73° East 337 388 22,600 720 Climbing Washington Center
09:46AM 35.5108 -79.8456 71° East 352 405 23,000 180 Climbing Washington Center
09:47AM 35.5425 -79.7172 73° East 375 432 23,000  Level Washington Center
09:48AM 35.5575 -79.5825 82° East 387 445 23,000  Level Washington Center
09:49AM 35.5619 -79.4475 88° East 397 457 23,000  Level Washington Center
09:50AM 35.5706 -79.3075 86° East 402 463 23,000  Level Washington Center
09:51AM 35.5747 -79.1697 88° East 402 463 23,000  Level Washington Center
09:52AM 35.5808 -79.0322 87° East 402 463 23,000  Level Washington Center
09:53AM 35.5867 -78.8944 87° East 402 463 23,000  Level Washington Center
09:54AM 35.5928 -78.7542 87° East 402 463 23,000 -360 Level Washington Center
09:55AM 35.5958 -78.6292 88° East 402 463 22,400 -1,740 Descending Washington Center
09:56AM 35.6017 -78.4864 87° East 391 450 19,600 -2,400 Descending Washington Center
09:57AM 35.6064 -78.3717 87° East 385 443 17,600 -2,280 Descending Washington Center
09:58AM 35.6114 -78.2467 87° East 372 428 15,100 -2,400 Descending Washington Center
09:59AM 35.6139 -78.1239 89° East 360 414 12,900 -2,160 Descending Washington Center
10:00AM 35.6183 -78.0117 87° East 346 398 10,800 -1,920 Descending Washington Center
10:01AM 35.6206 -77.9044 89° East 324 373 9,000 -1,800 Descending Washington Center
10:02AM 35.6244 -77.8050 87° East 313 360 7,300 -1,740 Descending Washington Center
10:03AM 35.6264 -77.7028 89° East 300 345 5,600 -1,740 Descending Washington Center
10:04AM 35.6322 -77.6033 86° East 289 333 3,900 -1,560 Descending Washington Center
10:05AM 35.6336 -77.5086 89° East 284 327 2,500 -840 Descending Washington Center
10:06AM 35.6328 -77.4294 91° East 257 296 2,300 1,260 Descending Washington Center
10:07AM 35.6297 -77.3553 93° East 232 267 5,000 2,760 Climbing Washington Center